Time;durP1;ratioP1;P1;durP2;ratioP2;P2;SDS_P1;SDS_P2;PMS_P1;PMS_P2;Temp;Humidity;BMP_temperature;BMP_pressure;BME280_temperature;BME280_humidity;BME280_pressure;Samples;Min_cycle;Max_cycle;Signal;HPM_P1;HPM_P2
2023/06/07 00:01:05;;;;;;;19.33;10.13;;;10.20;99.90;;;;;;5017877;28;20593;-73
2023/06/07 00:03:33;;;;;;;20.08;9.75;;;10.20;99.90;;;;;;5032451;28;20787;-72
2023/06/07 00:06:02;;;;;;;18.83;10.10;;;10.20;99.90;;;;;;5019156;28;20045;-71
2023/06/07 00:08:28;;;;;;;23.83;10.33;;;10.20;99.90;;;;;;4999357;28;20318;-73
2023/06/07 00:10:55;;;;;;;16.87;9.97;;;10.20;99.90;;;;;;5029087;28;20038;-72
2023/06/07 00:13:21;;;;;;;16.13;9.57;;;10.20;99.90;;;;;;5045457;28;20444;-72
2023/06/07 00:15:46;;;;;;;17.07;9.90;;;10.20;99.90;;;;;;5046930;28;20079;-73
2023/06/07 00:18:14;;;;;;;18.43;10.10;;;10.20;99.90;;;;;;5037089;28;20294;-73
2023/06/07 00:20:45;;;;;;;17.33;10.43;;;10.20;99.90;;;;;;5048791;28;20045;-73
2023/06/07 00:23:13;;;;;;;16.97;9.90;;;10.20;99.90;;;;;;5042563;28;20056;-72
2023/06/07 00:25:39;;;;;;;20.40;10.20;;;10.10;99.90;;;;;;5038473;28;20083;-72
2023/06/07 00:28:05;;;;;;;16.33;9.97;;;10.10;99.90;;;;;;5043868;28;20100;-73
2023/06/07 00:30:31;;;;;;;16.83;9.20;;;10.10;99.90;;;;;;5017767;28;20041;-72
2023/06/07 00:32:57;;;;;;;19.73;10.10;;;10.20;99.90;;;;;;5020346;28;20079;-72
2023/06/07 00:35:22;;;;;;;18.63;9.43;;;10.20;99.90;;;;;;5042949;28;20036;-72
2023/06/07 00:37:48;;;;;;;22.03;9.80;;;10.10;99.90;;;;;;5061933;28;20964;-73
2023/06/07 00:40:14;;;;;;;16.50;10.13;;;10.20;99.90;;;;;;5021762;28;20543;-73
2023/06/07 00:42:40;;;;;;;19.80;10.27;;;10.10;99.90;;;;;;5036209;28;20069;-73
2023/06/07 00:45:07;;;;;;;18.43;9.90;;;10.10;99.90;;;;;;5028436;28;20036;-73
2023/06/07 00:47:34;;;;;;;16.87;10.30;;;10.10;99.90;;;;;;5022800;28;20049;-72
2023/06/07 00:50:00;;;;;;;20.80;10.23;;;10.10;99.90;;;;;;5057209;28;20068;-73
2023/06/07 00:52:26;;;;;;;17.87;10.23;;;10.10;99.90;;;;;;5041820;28;20040;-72
2023/06/07 00:54:52;;;;;;;18.83;9.97;;;10.10;99.90;;;;;;5037598;28;20743;-72
2023/06/07 00:57:18;;;;;;;18.83;9.63;;;10.10;99.90;;;;;;5023111;28;20063;-72
2023/06/07 00:59:45;;;;;;;15.80;8.37;;;10.10;99.90;;;;;;5045523;28;20074;-73
2023/06/07 01:02:14;;;;;;;14.17;7.93;;;10.10;99.90;;;;;;5039079;28;20128;-73
2023/06/07 01:04:42;;;;;;;13.63;8.80;;;10.10;99.90;;;;;;5025116;28;20087;-72
2023/06/07 01:07:08;;;;;;;13.93;8.17;;;10.10;99.90;;;;;;5056627;28;20130;-73
2023/06/07 01:09:35;;;;;;;16.53;8.80;;;10.10;99.90;;;;;;5049731;28;20102;-73
2023/06/07 01:12:02;;;;;;;12.63;8.60;;;10.20;99.90;;;;;;5026955;28;20048;-73
2023/06/07 01:14:30;;;;;;;16.60;9.27;;;10.20;99.90;;;;;;5042189;28;20049;-73
2023/06/07 01:16:57;;;;;;;15.37;8.73;;;10.20;99.90;;;;;;5036994;28;20513;-73
2023/06/07 01:19:29;;;;;;;14.57;8.60;;;10.20;99.90;;;;;;5057006;28;20096;-73
2023/06/07 01:22:00;;;;;;;;;;;10.30;99.90;;;;;;5045595;28;20477;-73
2023/06/07 01:24:29;;;;;;;16.07;8.80;;;10.20;99.90;;;;;;5037781;28;19928;-73
2023/06/07 01:26:57;;;;;;;15.73;9.07;;;10.20;99.90;;;;;;5059087;28;20048;-72
2023/06/07 01:29:24;;;;;;;14.70;9.00;;;10.20;99.90;;;;;;5054530;28;20072;-73
2023/06/07 01:31:52;;;;;;;14.40;8.77;;;10.10;99.90;;;;;;5026303;28;20139;-73
2023/06/07 01:34:19;;;;;;;15.53;8.83;;;10.10;99.90;;;;;;5046113;28;20053;-72
2023/06/07 01:36:49;;;;;;;12.60;8.07;;;10.20;99.90;;;;;;5040384;28;20067;-73
2023/06/07 01:39:17;;;;;;;13.57;8.60;;;10.20;99.90;;;;;;5034708;28;20042;-73
2023/06/07 01:41:44;;;;;;;18.67;9.37;;;10.30;99.90;;;;;;5036045;28;20045;-72
2023/06/07 01:44:13;;;;;;;19.37;9.80;;;10.30;99.90;;;;;;5036031;28;20449;-72
2023/06/07 01:46:40;;;;;;;15.57;9.43;;;10.30;99.90;;;;;;5041898;28;20049;-72
2023/06/07 01:49:06;;;;;;;19.40;9.63;;;10.40;99.90;;;;;;5040567;28;20053;-73
2023/06/07 01:51:32;;;;;;;15.60;9.37;;;10.30;99.90;;;;;;5037805;28;20037;-73
2023/06/07 01:53:58;;;;;;;17.87;9.50;;;10.30;99.90;;;;;;5040373;28;20057;-73
2023/06/07 01:56:32;;;;;;;18.20;10.17;;;10.30;99.90;;;;;;5045857;28;20069;-72
2023/06/07 01:59:10;;;;;;;21.83;10.20;;;10.40;99.90;;;;;;5036861;28;20057;-74
2023/06/07 02:01:57;;;;;;;16.83;9.67;;;10.30;99.90;;;;;;5047990;28;20049;-73
2023/06/07 02:04:26;;;;;;;19.17;10.07;;;10.30;99.90;;;;;;5034489;28;20105;-73
2023/06/07 02:06:54;;;;;;;17.17;10.13;;;10.30;99.90;;;;;;5038408;28;20041;-73
2023/06/07 02:09:23;;;;;;;20.23;9.80;;;10.30;99.90;;;;;;5027051;28;20056;-73
2023/06/07 02:11:50;;;;;;;17.77;9.60;;;10.30;99.90;;;;;;5036262;28;20046;-73
2023/06/07 02:14:17;;;;;;;18.20;10.27;;;10.30;99.90;;;;;;5037126;28;20045;-73
2023/06/07 02:16:43;;;;;;;21.73;10.07;;;10.30;99.90;;;;;;5034792;28;20056;-73
2023/06/07 02:19:09;;;;;;;17.63;9.93;;;10.30;99.90;;;;;;5038293;28;20037;-73
2023/06/07 02:21:36;;;;;;;18.43;9.93;;;10.40;99.90;;;;;;5039824;28;20045;-73
2023/06/07 02:24:03;;;;;;;20.33;10.43;;;10.30;99.90;;;;;;5047508;28;20057;-74
2023/06/07 02:26:29;;;;;;;21.73;11.23;;;10.30;99.90;;;;;;5048388;28;20049;-71
2023/06/07 02:28:55;;;;;;;22.73;10.97;;;10.30;99.90;;;;;;5040048;28;20106;-73
2023/06/07 02:31:21;;;;;;;26.10;10.60;;;10.40;99.90;;;;;;5021557;28;20057;-74
2023/06/07 02:33:49;;;;;;;19.73;11.37;;;10.40;99.90;;;;;;5034252;28;20056;-73
2023/06/07 02:36:17;;;;;;;21.97;10.87;;;10.40;99.90;;;;;;5052676;28;20088;-73
2023/06/07 02:38:43;;;;;;;26.27;11.50;;;10.40;99.90;;;;;;5044995;28;20064;-72
2023/06/07 02:41:09;;;;;;;22.20;10.90;;;10.40;99.90;;;;;;5043468;28;20033;-72
2023/06/07 02:43:36;;;;;;;22.60;10.80;;;10.50;99.90;;;;;;5039489;28;20084;-73
2023/06/07 02:46:02;;;;;;;25.93;10.90;;;10.50;99.90;;;;;;5039538;28;20053;-72
2023/06/07 02:48:28;;;;;;;25.27;11.13;;;10.50;99.90;;;;;;5040996;28;20514;-72
2023/06/07 02:50:54;;;;;;;21.63;11.17;;;10.50;99.90;;;;;;5044555;28;20104;-71
2023/06/07 02:53:19;;;;;;;26.10;11.20;;;10.50;99.90;;;;;;5021813;28;20049;-73
2023/06/07 02:55:45;;;;;;;21.97;12.27;;;10.50;99.90;;;;;;5035306;28;20041;-72
2023/06/07 02:58:11;;;;;;;21.60;11.27;;;10.50;99.90;;;;;;5038739;28;20592;-74
2023/06/07 03:00:37;;;;;;;19.80;10.97;;;10.50;99.90;;;;;;5023591;28;20128;-73
2023/06/07 03:03:05;;;;;;;25.67;11.97;;;10.60;99.90;;;;;;5050660;28;20041;-73
2023/06/07 03:05:31;;;;;;;28.27;11.90;;;10.60;99.90;;;;;;5022431;28;20049;-72
2023/06/07 03:07:59;;;;;;;23.20;12.33;;;10.60;99.90;;;;;;5041860;28;20054;-72
2023/06/07 03:10:26;;;;;;;25.20;12.57;;;10.60;99.90;;;;;;5043089;28;20094;-72
2023/06/07 03:12:52;;;;;;;23.77;12.47;;;10.60;99.90;;;;;;5037040;28;20673;-73
2023/06/07 03:15:17;;;;;;;26.67;12.77;;;10.70;99.90;;;;;;5021831;28;21071;-73
2023/06/07 03:17:43;;;;;;;25.67;13.60;;;10.70;99.90;;;;;;5046406;28;20050;-72
2023/06/07 03:20:10;;;;;;;25.37;12.83;;;10.70;99.90;;;;;;5033995;28;21577;-75
2023/06/07 03:22:36;;;;;;;22.90;11.63;;;10.80;99.90;;;;;;5020501;28;20054;-76
2023/06/07 03:25:03;;;;;;;24.77;12.77;;;10.80;99.90;;;;;;5031660;28;20116;-76
2023/06/07 03:27:32;;;;;;;25.93;12.80;;;10.80;99.90;;;;;;5046329;28;20049;-81
2023/06/07 03:29:59;;;;;;;25.93;13.03;;;10.80;99.90;;;;;;5045516;28;20057;-77
2023/06/07 03:32:25;;;;;;;19.47;11.67;;;10.80;99.90;;;;;;5039859;28;20085;-76
2023/06/07 03:34:51;;;;;;;24.80;12.33;;;10.80;99.90;;;;;;5019135;28;20045;-74
2023/06/07 03:37:17;;;;;;;26.70;12.97;;;10.90;99.90;;;;;;5055899;28;20053;-77
2023/06/07 03:39:42;;;;;;;24.73;11.93;;;10.90;99.90;;;;;;5046387;28;20041;-77
2023/06/07 03:42:08;;;;;;;24.23;12.30;;;10.90;99.90;;;;;;5011863;28;20049;-79
2023/06/07 03:44:34;;;;;;;25.93;11.87;;;10.90;99.90;;;;;;5021354;28;20037;-81
2023/06/07 03:47:00;;;;;;;24.07;12.17;;;10.90;99.90;;;;;;5046607;28;20045;-80
2023/06/07 03:49:25;;;;;;;26.77;11.20;;;10.90;99.90;;;;;;5055353;28;20096;-78
2023/06/07 03:51:51;;;;;;;20.23;11.17;;;10.90;99.90;;;;;;5065297;28;20080;-78
2023/06/07 03:54:17;;;;;;;19.97;10.70;;;10.90;99.90;;;;;;5064067;28;20374;-81
2023/06/07 03:56:43;;;;;;;21.90;10.67;;;11.00;99.90;;;;;;5022715;28;20076;-79
2023/06/07 03:59:11;;;;;;;20.00;10.47;;;11.00;99.90;;;;;;5039289;28;20063;-79
2023/06/07 04:01:37;;;;;;;17.03;10.03;;;11.00;99.90;;;;;;5058405;28;20049;-81
2023/06/07 04:04:02;;;;;;;21.77;10.43;;;11.00;99.90;;;;;;5040360;28;20045;-80
2023/06/07 04:06:28;;;;;;;19.93;10.73;;;11.00;99.90;;;;;;5038782;28;20049;-80
2023/06/07 04:08:56;;;;;;;20.67;10.50;;;11.00;99.90;;;;;;5025018;28;20082;-80
2023/06/07 04:11:23;;;;;;;23.33;10.97;;;11.10;99.90;;;;;;5044437;28;20040;-82
2023/06/07 04:13:48;;;;;;;24.70;10.67;;;11.10;99.90;;;;;;5044682;28;20045;-80
2023/06/07 04:16:14;;;;;;;23.10;11.30;;;11.10;99.90;;;;;;5028983;28;20035;-80
2023/06/07 04:18:40;;;;;;;23.43;10.40;;;11.10;99.90;;;;;;5043023;28;20047;-81
2023/06/07 04:21:05;;;;;;;21.90;10.63;;;11.10;99.90;;;;;;5040117;28;20060;-78
2023/06/07 04:23:32;;;;;;;21.00;10.70;;;11.20;99.90;;;;;;5043593;28;20032;-80
2023/06/07 04:25:58;;;;;;;23.50;10.43;;;11.20;99.90;;;;;;5030554;28;20051;-80
2023/06/07 04:28:24;;;;;;;22.13;9.97;;;11.20;99.90;;;;;;5042802;28;20051;-80
2023/06/07 04:30:52;;;;;;;26.57;10.10;;;11.30;99.90;;;;;;5023074;28;20127;-81
2023/06/07 04:33:19;;;;;;;19.00;9.77;;;11.30;99.90;;;;;;5023009;28;20064;-80
2023/06/07 04:35:45;;;;;;;20.47;10.83;;;11.30;99.90;;;;;;4987337;28;1113676;-83
2023/06/07 04:38:23;;;;;;;14.63;9.13;;;11.40;99.90;;;;;;5047943;28;20052;-84
2023/06/07 04:40:50;;;;;;;18.63;9.00;;;11.40;99.90;;;;;;5061448;28;20041;-82
2023/06/07 04:43:19;;;;;;;17.17;9.07;;;11.40;99.90;;;;;;5006287;28;20049;-82
2023/06/07 04:45:54;;;;;;;19.77;9.93;;;11.40;99.90;;;;;;5026078;28;20068;-83
2023/06/07 04:48:24;;;;;;;21.83;9.63;;;11.50;99.90;;;;;;5043098;28;20044;-84
2023/06/07 04:51:02;;;;;;;20.50;9.27;;;11.50;99.90;;;;;;5045101;28;20050;-84
2023/06/07 04:53:28;;;;;;;23.00;8.70;;;11.50;99.90;;;;;;5040155;28;20052;-83
2023/06/07 04:55:56;;;;;;;24.50;9.73;;;11.50;99.90;;;;;;5043331;28;20078;-82
2023/06/07 04:58:21;;;;;;;20.27;9.67;;;11.50;99.90;;;;;;5048269;28;20040;-83
2023/06/07 05:00:51;;;;;;;21.57;9.70;;;11.60;99.90;;;;;;5029516;28;20057;-82
2023/06/07 05:03:21;;;;;;;21.77;8.63;;;11.60;99.90;;;;;;5040089;28;20052;-82
2023/06/07 05:05:48;;;;;;;19.13;9.80;;;11.70;99.90;;;;;;5013583;28;20037;-84
2023/06/07 05:08:14;;;;;;;19.10;9.37;;;11.70;99.90;;;;;;5013065;28;20045;-83
2023/06/07 05:10:40;;;;;;;19.00;8.67;;;11.70;99.90;;;;;;5029895;28;20041;-84
2023/06/07 05:13:06;;;;;;;22.73;9.33;;;11.80;99.90;;;;;;5010819;28;20128;-83
2023/06/07 05:15:32;;;;;;;18.77;9.30;;;11.80;99.90;;;;;;5013096;28;20076;-89
2023/06/07 05:17:58;;;;;;;19.70;9.13;;;11.80;99.90;;;;;;5012360;28;20053;-78
2023/06/07 05:20:27;;;;;;;19.63;9.60;;;11.90;99.90;;;;;;5028239;28;20154;-79
2023/06/07 05:22:53;;;;;;;20.55;8.52;;;11.90;99.90;;;;;;5049649;28;20102;-78
2023/06/07 05:25:19;;;;;;;20.05;8.57;;;12.00;99.90;;;;;;5032741;28;20053;-78
2023/06/07 05:27:45;;;;;;;18.33;9.13;;;12.10;99.90;;;;;;5034470;28;20083;-80
2023/06/07 05:30:11;;;;;;;20.38;8.32;;;12.10;99.90;;;;;;5029116;28;20571;-79
2023/06/07 05:32:37;;;;;;;15.20;8.50;;;12.10;99.90;;;;;;5016666;28;20044;-79
2023/06/07 05:35:04;;;;;;;15.17;8.60;;;12.10;99.90;;;;;;5033255;28;20045;-78
2023/06/07 05:37:30;;;;;;;15.77;7.90;;;12.10;99.90;;;;;;5028299;28;20053;-79
2023/06/07 05:39:56;;;;;;;18.50;7.57;;;12.20;99.90;;;;;;5031951;28;20132;-79
2023/06/07 05:42:22;;;;;;;15.90;7.70;;;12.20;99.90;;;;;;5007118;28;20154;-79
2023/06/07 05:44:49;;;;;;;21.23;8.40;;;12.10;99.90;;;;;;5011667;28;20052;-78
2023/06/07 05:47:16;;;;;;;19.53;8.40;;;12.10;99.90;;;;;;5011139;28;20075;-79
2023/06/07 05:49:45;;;;;;;16.47;7.93;;;12.10;99.90;;;;;;5031601;28;20051;-78
2023/06/07 05:52:11;;;;;;;17.42;7.93;;;12.10;99.90;;;;;;5013279;28;20079;-77
2023/06/07 05:54:47;;;;;;;18.50;8.37;;;12.10;99.90;;;;;;5010958;28;20037;-78
2023/06/07 05:57:13;;;;;;;18.30;8.50;;;12.20;99.90;;;;;;5046855;28;20041;-78
2023/06/07 05:59:38;;;;;;;20.23;8.27;;;12.30;99.90;;;;;;5009169;28;21609;-80
2023/06/07 06:02:04;;;;;;;17.77;7.70;;;12.30;99.90;;;;;;5031108;28;20060;-86
2023/06/07 06:04:30;;;;;;;14.90;7.93;;;12.40;99.90;;;;;;4978140;28;20053;-79
2023/06/07 06:06:56;;;;;;;19.52;7.85;;;12.40;99.90;;;;;;5011807;28;20606;-79
2023/06/07 06:09:23;;;;;;;15.77;7.07;;;12.50;99.90;;;;;;4995615;28;20049;-78
2023/06/07 06:11:49;;;;;;;14.23;7.50;;;12.60;99.90;;;;;;5030173;28;20049;-79
2023/06/07 06:14:15;;;;;;;19.98;7.53;;;12.70;99.90;;;;;;5012675;28;20810;-79
2023/06/07 06:16:41;;;;;;;15.07;7.47;;;12.80;99.90;;;;;;5009929;28;20048;-79
2023/06/07 06:19:07;;;;;;;16.20;8.35;;;12.80;99.90;;;;;;5011187;28;20037;-80
2023/06/07 06:21:32;;;;;;;18.35;8.40;;;12.80;99.90;;;;;;5009215;28;20050;-76
2023/06/07 06:23:58;;;;;;;16.42;8.07;;;12.80;99.90;;;;;;5027625;28;20045;-76
2023/06/07 06:26:27;;;;;;;15.75;7.18;;;12.80;99.90;;;;;;5011875;28;20055;-76
2023/06/07 06:28:53;;;;;;;14.80;7.10;;;12.80;99.90;;;;;;5009890;28;20100;-77
2023/06/07 06:31:18;;;;;;;17.30;7.22;;;12.80;99.90;;;;;;5027953;28;20115;-77
2023/06/07 06:33:44;;;;;;;12.77;6.63;;;12.90;99.90;;;;;;5008980;28;20049;-76
2023/06/07 06:36:11;;;;;;;16.52;7.53;;;13.00;99.90;;;;;;5009190;28;20046;-76
2023/06/07 06:38:36;;;;;;;11.40;6.78;;;13.00;99.90;;;;;;5007779;28;20049;-75
2023/06/07 06:41:02;;;;;;;13.50;6.82;;;13.00;99.90;;;;;;5011556;28;20049;-76
2023/06/07 06:43:28;;;;;;;17.52;7.07;;;13.00;99.90;;;;;;5012927;28;20064;-75
2023/06/07 06:45:54;;;;;;;15.68;6.50;;;13.00;99.90;;;;;;5009323;28;20140;-76
2023/06/07 06:48:19;;;;;;;16.08;7.32;;;13.00;99.90;;;;;;5028179;28;20072;-76
2023/06/07 06:50:47;;;;;;;16.73;6.88;;;13.00;99.90;;;;;;5026977;28;20057;-77
2023/06/07 06:53:13;;;;;;;12.07;6.43;;;13.30;99.90;;;;;;5028014;28;20046;-76
2023/06/07 06:55:39;;;;;;;13.23;6.28;;;13.60;99.90;;;;;;5025477;28;20050;-77
2023/06/07 06:58:05;;;;;;;13.07;6.45;;;13.90;99.90;;;;;;5026695;28;20710;-77
2023/06/07 07:00:35;;;;;;;14.38;6.82;;;14.20;99.90;;;;;;5026028;28;20049;-76
2023/06/07 07:03:01;;;;;;;14.50;5.95;;;14.50;99.90;;;;;;5026450;28;20093;-77
2023/06/07 07:05:27;;;;;;;12.15;6.07;;;14.70;99.90;;;;;;5027490;28;20053;-77
2023/06/07 07:07:53;;;;;;;14.10;6.47;;;14.90;99.90;;;;;;5025065;28;20057;-77
2023/06/07 07:10:19;;;;;;;15.27;6.60;;;15.00;99.90;;;;;;5032171;28;20037;-76
2023/06/07 07:12:45;;;;;;;15.10;5.60;;;15.10;99.90;;;;;;5026210;28;20138;-77
2023/06/07 07:15:10;;;;;;;12.57;5.63;;;15.00;99.90;;;;;;5027473;28;20632;-77
2023/06/07 07:17:47;;;;;;;13.65;5.65;;;15.10;99.90;;;;;;5025088;28;20041;-76
2023/06/07 07:20:14;;;;;;;14.93;6.38;;;15.00;99.90;;;;;;5008900;28;20056;-77
2023/06/07 07:22:41;;;;;;;15.90;5.68;;;15.10;99.90;;;;;;5027505;28;20042;-77
2023/06/07 07:25:07;;;;;;;12.85;5.00;;;15.20;99.90;;;;;;5024054;28;20056;-77
2023/06/07 07:27:33;;;;;;;12.80;5.10;;;15.50;99.90;;;;;;5027113;28;20045;-76
2023/06/07 07:30:00;;;;;;;14.00;6.05;;;15.60;99.90;;;;;;5009083;28;20049;-79
2023/06/07 07:32:26;;;;;;;12.10;5.15;;;15.60;99.90;;;;;;5027637;28;20088;-77
2023/06/07 07:34:51;;;;;;;17.75;5.85;;;15.70;99.90;;;;;;5025752;28;20053;-78
2023/06/07 07:37:19;;;;;;;9.98;5.50;;;15.80;99.90;;;;;;5008642;28;20594;-79
2023/06/07 07:39:45;;;;;;;15.82;5.82;;;15.80;99.90;;;;;;5009791;28;20045;-78
2023/06/07 07:42:11;;;;;;;13.52;5.53;;;15.70;99.90;;;;;;4991421;28;20076;-77
2023/06/07 07:44:37;;;;;;;16.15;5.68;;;15.80;99.90;;;;;;5009678;28;20056;-76
2023/06/07 07:47:05;;;;;;;11.77;5.53;;;15.80;99.90;;;;;;5024521;28;20077;-77
2023/06/07 07:49:31;;;;;;;11.98;5.45;;;15.90;99.90;;;;;;5029865;28;20079;-78
2023/06/07 07:51:56;;;;;;;12.55;4.95;;;16.00;99.90;;;;;;5027123;28;20045;-76
2023/06/07 07:54:22;;;;;;;12.07;5.57;;;16.00;99.90;;;;;;5025403;28;20084;-77
2023/06/07 07:56:48;;;;;;;11.82;5.28;;;15.90;99.90;;;;;;5027089;28;20049;-76
2023/06/07 07:59:13;;;;;;;10.75;4.80;;;16.00;99.90;;;;;;5024383;28;21639;-76
2023/06/07 08:01:39;;;;;;;9.80;4.70;;;15.90;99.90;;;;;;5027376;28;20046;-77
2023/06/07 08:04:05;;;;;;;14.75;5.82;;;15.90;99.90;;;;;;5024720;28;20049;-77
2023/06/07 08:06:30;;;;;;;10.45;4.70;;;15.90;99.90;;;;;;5009894;28;20049;-77
2023/06/07 08:08:56;;;;;;;12.55;5.68;;;15.90;99.90;;;;;;5009456;28;20168;-76
2023/06/07 08:11:23;;;;;;;11.68;4.85;;;15.90;99.90;;;;;;5010028;28;20057;-75
2023/06/07 08:13:49;;;;;;;15.27;5.70;;;16.00;99.90;;;;;;5010198;28;20668;-76
2023/06/07 08:16:16;;;;;;;13.52;4.95;;;16.10;99.90;;;;;;5025346;28;20045;-75
2023/06/07 08:18:43;;;;;;;8.20;4.40;;;16.30;99.90;;;;;;5011425;28;20596;-79
2023/06/07 08:21:11;;;;;;;8.95;4.38;;;16.50;99.90;;;;;;5024312;28;20041;-79
2023/06/07 08:23:37;;;;;;;10.00;4.72;;;16.70;99.90;;;;;;5010135;28;20029;-80
2023/06/07 08:26:03;;;;;;;9.63;4.65;;;16.80;99.90;;;;;;5025942;28;20068;-79
2023/06/07 08:28:29;;;;;;;11.25;4.45;;;16.80;99.90;;;;;;4993803;28;21138;-79
2023/06/07 08:30:55;;;;;;;9.65;4.15;;;16.90;99.90;;;;;;5026356;28;20049;-81
2023/06/07 08:33:21;;;;;;;54.15;9.60;;;17.00;99.90;;;;;;5006878;28;20041;-80
2023/06/07 08:35:47;;;;;;;9.93;4.63;;;17.20;99.90;;;;;;5010442;28;20112;-81
2023/06/07 08:38:12;;;;;;;10.77;4.80;;;17.20;99.90;;;;;;5008453;28;20052;-80
2023/06/07 08:40:38;;;;;;;10.07;4.57;;;17.10;99.90;;;;;;5008686;28;20887;-79
2023/06/07 08:43:04;;;;;;;9.75;4.72;;;17.10;99.90;;;;;;4990865;28;20057;-81
2023/06/07 08:45:30;;;;;;;13.10;5.05;;;17.20;99.90;;;;;;5025563;28;20064;-80
2023/06/07 08:48:01;;;;;;;12.63;5.05;;;17.20;99.90;;;;;;5010134;28;20073;-80
2023/06/07 08:50:27;;;;;;;11.00;5.30;;;17.20;99.90;;;;;;5024560;28;20786;-80
2023/06/07 08:52:55;;;;;;;9.70;4.55;;;17.30;99.90;;;;;;5009932;28;20033;-79
2023/06/07 08:55:21;;;;;;;11.25;4.88;;;17.50;99.90;;;;;;5007706;28;20041;-80
2023/06/07 08:57:52;;;;;;;13.18;4.65;;;17.70;99.90;;;;;;5029636;28;20057;-79
2023/06/07 09:00:25;;;;;;;10.88;5.57;;;17.60;99.90;;;;;;5028460;28;20057;-80
2023/06/07 09:02:54;;;;;;;12.02;4.95;;;17.90;99.90;;;;;;5032668;28;20045;-79
2023/06/07 09:05:21;;;;;;;11.25;5.25;;;18.00;99.90;;;;;;5013073;28;20052;-80
2023/06/07 09:07:47;;;;;;;14.88;5.00;;;18.10;99.90;;;;;;5027064;28;20155;-81
2023/06/07 09:10:13;;;;;;;11.07;5.30;;;18.00;99.90;;;;;;5014135;28;20623;-81
2023/06/07 09:12:40;;;;;;;16.77;5.93;;;18.00;99.90;;;;;;5027964;28;20050;-81
2023/06/07 09:15:08;;;;;;;11.98;5.32;;;17.90;99.90;;;;;;5014521;28;20048;-81
2023/06/07 09:17:52;;;;;;;10.57;4.70;;;18.00;99.90;;;;;;5029288;28;20049;-80
2023/06/07 09:20:20;;;;;;;11.65;4.65;;;18.20;99.90;;;;;;5027326;28;20907;-82
2023/06/07 09:23:08;;;;;;;11.60;4.43;;;18.20;99.90;;;;;;5046587;28;20061;-83
2023/06/07 09:25:35;;;;;;;11.23;4.93;;;18.40;99.90;;;;;;5027179;28;20764;-82
2023/06/07 09:28:09;;;;;;;12.32;4.45;;;18.50;99.90;;;;;;5013113;28;20076;-82
2023/06/07 09:30:36;;;;;;;8.52;4.65;;;18.50;99.90;;;;;;5029318;28;20761;-82
2023/06/07 09:33:03;;;;;;;9.55;4.97;;;18.50;99.90;;;;;;5026730;28;20053;-82
2023/06/07 09:35:29;;;;;;;11.23;5.13;;;18.70;99.90;;;;;;5013794;28;20135;-81
2023/06/07 09:37:55;;;;;;;9.32;4.18;;;18.70;99.90;;;;;;5030893;28;20080;-82
2023/06/07 09:40:22;;;;;;;8.85;4.30;;;18.60;99.90;;;;;;5032838;28;20040;-81
2023/06/07 09:42:58;;;;;;;6.55;4.13;;;18.70;99.90;;;;;;5012802;28;20048;-82
2023/06/07 09:45:25;;;;;;;11.98;5.03;;;18.70;99.90;;;;;;5033238;28;20049;-83
2023/06/07 09:48:11;;;;;;;12.57;5.05;;;18.70;99.90;;;;;;5050671;28;20048;-84
2023/06/07 09:50:37;;;;;;;11.90;4.70;;;18.80;99.90;;;;;;5028907;28;20061;-86
2023/06/07 09:53:03;;;;;;;9.80;4.88;;;18.90;99.90;;;;;;5015659;28;20044;-83
2023/06/07 09:55:29;;;;;;;8.18;4.70;;;19.10;99.90;;;;;;5013441;28;20052;-83
2023/06/07 09:57:56;;;;;;;9.10;5.03;;;19.20;99.90;;;;;;5031903;28;20076;-84
2023/06/07 10:00:22;;;;;;;12.95;4.63;;;19.20;99.90;;;;;;5014784;28;20257;-83
2023/06/07 10:02:49;;;;;;;19.92;5.18;;;19.20;99.90;;;;;;4999843;28;20087;-84
2023/06/07 10:05:16;;;;;;;11.50;4.70;;;19.30;99.90;;;;;;5015978;28;20057;-84
2023/06/07 10:07:46;;;;;;;8.02;4.50;;;19.20;99.90;;;;;;5011143;28;20072;-84
2023/06/07 10:10:15;;;;;;;9.40;5.43;;;19.20;99.90;;;;;;5016660;28;20056;-83
2023/06/07 10:12:42;;;;;;;9.98;4.72;;;19.40;99.90;;;;;;5013376;28;20059;-85
2023/06/07 10:15:10;;;;;;;12.18;4.93;;;19.50;99.90;;;;;;5045694;28;20045;-84
2023/06/07 10:17:48;;;;;;;13.02;5.05;;;19.80;99.90;;;;;;5027658;28;20040;-84
2023/06/07 10:20:28;;;;;;;9.38;5.07;;;19.80;99.90;;;;;;5026670;28;20086;-83
2023/06/07 10:23:04;;;;;;;10.88;4.88;;;19.80;99.90;;;;;;5033843;28;20132;-80
2023/06/07 10:25:34;;;;;;;11.50;5.30;;;20.10;99.90;;;;;;5031064;28;20045;-81
2023/06/07 10:28:27;;;;;;;11.23;5.38;;;20.20;99.90;;;;;;5032256;28;20075;-82
2023/06/07 10:31:03;;;;;;;7.82;4.95;;;20.00;99.90;;;;;;5050350;28;20101;-81
2023/06/07 10:33:30;;;;;;;8.60;5.05;;;19.90;99.90;;;;;;5030819;28;20510;-82
2023/06/07 10:35:57;;;;;;;12.73;5.80;;;19.90;99.90;;;;;;5018721;28;20057;-81
2023/06/07 10:38:24;;;;;;;11.00;5.30;;;20.00;99.90;;;;;;5030195;28;20053;-81
2023/06/07 10:40:51;;;;;;;13.27;5.53;;;20.30;99.90;;;;;;5013946;28;20033;-81
2023/06/07 10:43:17;;;;;;;11.27;5.80;;;20.40;99.90;;;;;;5013029;28;20045;-79
2023/06/07 10:45:43;;;;;;;11.05;5.80;;;20.40;99.90;;;;;;5047888;28;20049;-81
2023/06/07 10:48:34;;;;;;;11.73;6.30;;;20.40;99.90;;;;;;5050007;28;20704;-80
2023/06/07 10:51:00;;;;;;;9.07;5.75;;;20.40;99.90;;;;;;5012194;28;20041;-81
2023/06/07 10:53:48;;;;;;;10.80;5.80;;;20.40;99.90;;;;;;5031639;28;20051;-81
2023/06/07 10:56:30;;;;;;;8.63;5.88;;;20.50;99.90;;;;;;5030074;28;20037;-81
2023/06/07 10:59:16;;;;;;;10.60;5.90;;;20.70;99.90;;;;;;5028743;28;20037;-81
2023/06/07 11:01:50;;;;;;;13.40;5.85;;;20.70;99.90;;;;;;5030858;28;20048;-81
2023/06/07 11:04:35;;;;;;;12.57;6.47;;;20.80;99.90;;;;;;5012937;28;20052;-81
2023/06/07 11:07:30;;;;;;;11.32;6.45;;;20.90;99.90;;;;;;5046523;28;20049;-81
2023/06/07 11:10:04;;;;;;;12.98;6.57;;;20.80;99.90;;;;;;5048723;28;20506;-81
2023/06/07 11:12:38;;;;;;;9.52;6.05;;;20.80;99.90;;;;;;5028724;28;20127;-81
2023/06/07 11:15:45;;;;;;;12.45;6.18;;;20.70;99.90;;;;;;5014666;28;20044;-80
2023/06/07 11:18:10;;;;;;;11.13;6.13;;;20.70;99.90;;;;;;5029955;28;20052;-82
2023/06/07 11:20:38;;;;;;;12.18;6.22;;;20.70;99.90;;;;;;5028263;28;20045;-82
2023/06/07 11:23:30;;;;;;;12.82;6.65;;;20.60;99.90;;;;;;5032823;28;20498;-82
2023/06/07 11:26:07;;;;;;;10.82;6.15;;;20.70;99.90;;;;;;5047225;28;20056;-81
2023/06/07 11:28:37;;;;;;;16.33;6.53;;;20.90;99.90;;;;;;5047614;28;21253;-84
2023/06/07 11:31:08;;;;;;;14.43;6.95;;;20.90;99.90;;;;;;5015048;28;20057;-82
2023/06/07 11:33:34;;;;;;;9.90;5.90;;;20.90;99.90;;;;;;5027845;28;20059;-83
2023/06/07 11:36:01;;;;;;;9.90;6.22;;;21.00;99.90;;;;;;5027370;28;20065;-83
2023/06/07 11:38:27;;;;;;;11.95;7.18;;;21.00;99.90;;;;;;5008227;28;20099;-83
2023/06/07 11:40:53;;;;;;;10.90;6.00;;;21.00;99.90;;;;;;5027692;28;20045;-83
2023/06/07 11:43:27;;;;;;;11.35;6.40;;;21.10;99.90;;;;;;5009318;28;20128;-82
2023/06/07 11:45:57;;;;;;;14.93;6.53;;;21.10;99.90;;;;;;5027617;28;20073;-81
2023/06/07 11:48:27;;;;;;;12.38;6.53;;;21.00;99.90;;;;;;5026156;28;20052;-83
2023/06/07 11:50:53;;;;;;;11.77;7.05;;;20.80;99.90;;;;;;5023860;28;20045;-82
2023/06/07 11:53:20;;;;;;;13.93;6.93;;;20.70;99.90;;;;;;5027268;28;20041;-82
2023/06/07 11:55:46;;;;;;;10.27;6.07;;;20.70;99.90;;;;;;5008307;28;20053;-82
2023/06/07 11:58:12;;;;;;;13.93;6.30;;;20.70;99.90;;;;;;5010197;28;20107;-82
2023/06/07 12:00:37;;;;;;;10.05;6.18;;;21.00;99.90;;;;;;5009194;28;20049;-81
2023/06/07 12:03:04;;;;;;;11.93;6.68;;;21.40;99.90;;;;;;4992417;28;20056;-81
2023/06/07 12:05:31;;;;;;;11.45;5.78;;;21.80;99.90;;;;;;5010838;28;20164;-83
2023/06/07 12:08:09;;;;;;;11.98;5.53;;;21.80;99.90;;;;;;5009609;28;20088;-83
2023/06/07 12:10:38;;;;;;;11.25;6.30;;;21.90;99.90;;;;;;5029283;28;20060;-82
2023/06/07 12:13:07;;;;;;;9.73;6.57;;;21.60;99.90;;;;;;5009280;28;21060;-83
2023/06/07 12:15:34;;;;;;;12.32;6.07;;;21.50;99.90;;;;;;5027571;28;20091;-83
2023/06/07 12:18:02;;;;;;;11.18;7.00;;;21.60;99.90;;;;;;5026500;28;20046;-85
2023/06/07 12:20:29;;;;;;;9.60;6.10;;;21.60;99.90;;;;;;5007853;28;20048;-84
2023/06/07 12:23:05;;;;;;;12.27;6.05;;;21.70;99.90;;;;;;5009975;28;20057;-82
2023/06/07 12:25:31;;;;;;;12.98;6.53;;;21.80;99.90;;;;;;5024262;28;20050;-83
2023/06/07 12:27:57;;;;;;;8.98;5.50;;;21.70;99.90;;;;;;5046514;28;20045;-83
2023/06/07 12:30:32;;;;;;;11.82;6.57;;;21.80;99.90;;;;;;5043382;28;20047;-82
2023/06/07 12:33:01;;;;;;;11.23;5.97;;;22.00;99.90;;;;;;5022041;28;20057;-83
2023/06/07 12:35:39;;;;;;;13.00;6.22;;;22.30;99.90;;;;;;5041709;28;20045;-84
2023/06/07 12:38:10;;;;;;;12.65;6.13;;;22.40;98.00;;;;;;5044190;28;20064;-87
2023/06/07 12:40:36;;;;;;;10.95;6.43;;;22.30;99.90;;;;;;5043399;28;20108;-84